sensor_id;sensor_type;location;lat;lon;timestamp;temperature;humidity
17998;DHT22;9124;48.144;17.098;2023-06-04T00:02:34;15.20;74.60
17998;DHT22;9124;48.144;17.098;2023-06-04T00:07:01;15.10;74.70
17998;DHT22;9124;48.144;17.098;2023-06-04T00:11:27;15.20;74.70
17998;DHT22;9124;48.144;17.098;2023-06-04T00:15:54;15.30;74.70
17998;DHT22;9124;48.144;17.098;2023-06-04T00:20:20;15.20;74.60
17998;DHT22;9124;48.144;17.098;2023-06-04T00:24:47;15.20;74.70
17998;DHT22;9124;48.144;17.098;2023-06-04T00:29:13;15.20;74.90
17998;DHT22;9124;48.144;17.098;2023-06-04T00:33:40;15.10;75.20
17998;DHT22;9124;48.144;17.098;2023-06-04T00:38:06;15.00;75.40
17998;DHT22;9124;48.144;17.098;2023-06-04T00:42:33;14.90;75.80
17998;DHT22;9124;48.144;17.098;2023-06-04T00:46:59;14.80;76.00
17998;DHT22;9124;48.144;17.098;2023-06-04T00:51:26;14.80;76.30
17998;DHT22;9124;48.144;17.098;2023-06-04T00:55:53;14.70;76.30
17998;DHT22;9124;48.144;17.098;2023-06-04T01:00:20;14.80;76.50
17998;DHT22;9124;48.144;17.098;2023-06-04T01:09:16;14.70;76.50
17998;DHT22;9124;48.144;17.098;2023-06-04T01:13:42;14.60;76.50
17998;DHT22;9124;48.144;17.098;2023-06-04T01:18:09;14.60;76.50
17998;DHT22;9124;48.144;17.098;2023-06-04T01:22:52;14.60;76.60
17998;DHT22;9124;48.144;17.098;2023-06-04T01:27:26;14.60;76.60
17998;DHT22;9124;48.144;17.098;2023-06-04T01:31:52;14.70;76.60
17998;DHT22;9124;48.144;17.098;2023-06-04T01:36:21;14.90;76.30
17998;DHT22;9124;48.144;17.098;2023-06-04T01:40:48;15.10;75.80
17998;DHT22;9124;48.144;17.098;2023-06-04T01:45:17;15.30;75.20
17998;DHT22;9124;48.144;17.098;2023-06-04T01:49:43;15.40;74.30
17998;DHT22;9124;48.144;17.098;2023-06-04T01:54:10;15.40;73.70
17998;DHT22;9124;48.144;17.098;2023-06-04T01:58:36;15.50;73.30
17998;DHT22;9124;48.144;17.098;2023-06-04T02:03:03;15.50;72.80
17998;DHT22;9124;48.144;17.098;2023-06-04T02:07:29;15.50;72.20
17998;DHT22;9124;48.144;17.098;2023-06-04T02:11:57;15.50;71.90
17998;DHT22;9124;48.144;17.098;2023-06-04T02:16:24;15.60;71.60
17998;DHT22;9124;48.144;17.098;2023-06-04T02:20:51;15.60;71.20
17998;DHT22;9124;48.144;17.098;2023-06-04T02:25:17;15.50;70.80
17998;DHT22;9124;48.144;17.098;2023-06-04T02:29:44;15.50;70.60
17998;DHT22;9124;48.144;17.098;2023-06-04T02:34:11;15.50;70.20
17998;DHT22;9124;48.144;17.098;2023-06-04T02:38:37;15.50;70.00
17998;DHT22;9124;48.144;17.098;2023-06-04T02:43:03;15.50;69.80
17998;DHT22;9124;48.144;17.098;2023-06-04T02:47:30;15.50;69.40
17998;DHT22;9124;48.144;17.098;2023-06-04T02:51:57;15.60;69.30
17998;DHT22;9124;48.144;17.098;2023-06-04T02:56:23;15.60;68.90
17998;DHT22;9124;48.144;17.098;2023-06-04T03:00:51;15.60;68.70
17998;DHT22;9124;48.144;17.098;2023-06-04T03:05:18;15.60;68.40
17998;DHT22;9124;48.144;17.098;2023-06-04T03:09:45;15.60;68.10
17998;DHT22;9124;48.144;17.098;2023-06-04T03:14:11;15.60;67.70
17998;DHT22;9124;48.144;17.098;2023-06-04T03:18:41;15.60;67.40
17998;DHT22;9124;48.144;17.098;2023-06-04T03:23:08;15.70;67.70
17998;DHT22;9124;48.144;17.098;2023-06-04T03:27:35;15.70;66.70
17998;DHT22;9124;48.144;17.098;2023-06-04T03:32:03;15.70;66.60
17998;DHT22;9124;48.144;17.098;2023-06-04T03:36:31;15.70;66.30
17998;DHT22;9124;48.144;17.098;2023-06-04T03:40:59;15.80;65.90
17998;DHT22;9124;48.144;17.098;2023-06-04T03:45:26;15.80;65.70
17998;DHT22;9124;48.144;17.098;2023-06-04T03:49:52;15.80;65.30
17998;DHT22;9124;48.144;17.098;2023-06-04T03:54:19;15.90;65.00
17998;DHT22;9124;48.144;17.098;2023-06-04T03:58:48;15.90;64.70
17998;DHT22;9124;48.144;17.098;2023-06-04T04:03:15;16.00;64.10
17998;DHT22;9124;48.144;17.098;2023-06-04T04:07:44;16.10;64.60
17998;DHT22;9124;48.144;17.098;2023-06-04T04:12:12;16.10;63.60
17998;DHT22;9124;48.144;17.098;2023-06-04T04:16:38;16.20;63.40
17998;DHT22;9124;48.144;17.098;2023-06-04T04:21:30;16.20;63.30
17998;DHT22;9124;48.144;17.098;2023-06-04T04:26:05;16.20;63.10
17998;DHT22;9124;48.144;17.098;2023-06-04T04:30:36;16.10;62.80
17998;DHT22;9124;48.144;17.098;2023-06-04T04:35:04;16.10;62.90
17998;DHT22;9124;48.144;17.098;2023-06-04T04:39:36;16.00;62.80
17998;DHT22;9124;48.144;17.098;2023-06-04T04:44:04;16.00;62.90
17998;DHT22;9124;48.144;17.098;2023-06-04T04:48:32;16.00;62.80
17998;DHT22;9124;48.144;17.098;2023-06-04T04:52:58;16.00;62.80
17998;DHT22;9124;48.144;17.098;2023-06-04T04:57:26;16.10;62.90
17998;DHT22;9124;48.144;17.098;2023-06-04T05:01:55;16.10;62.60
17998;DHT22;9124;48.144;17.098;2023-06-04T05:06:21;16.10;62.50
17998;DHT22;9124;48.144;17.098;2023-06-04T05:10:48;16.20;62.20
17998;DHT22;9124;48.144;17.098;2023-06-04T05:15:15;16.20;62.10
17998;DHT22;9124;48.144;17.098;2023-06-04T05:19:43;16.20;62.10
17998;DHT22;9124;48.144;17.098;2023-06-04T05:24:11;16.30;62.00
17998;DHT22;9124;48.144;17.098;2023-06-04T05:28:40;16.40;61.90
17998;DHT22;9124;48.144;17.098;2023-06-04T05:33:10;16.40;61.70
17998;DHT22;9124;48.144;17.098;2023-06-04T05:37:57;16.40;61.50
17998;DHT22;9124;48.144;17.098;2023-06-04T05:42:27;16.40;61.50
17998;DHT22;9124;48.144;17.098;2023-06-04T05:46:54;16.30;61.20
17998;DHT22;9124;48.144;17.098;2023-06-04T05:51:22;16.30;61.20
17998;DHT22;9124;48.144;17.098;2023-06-04T05:55:49;16.30;61.30
17998;DHT22;9124;48.144;17.098;2023-06-04T06:00:16;16.40;61.20
17998;DHT22;9124;48.144;17.098;2023-06-04T06:04:42;16.50;61.20
17998;DHT22;9124;48.144;17.098;2023-06-04T06:09:10;16.60;61.10
17998;DHT22;9124;48.144;17.098;2023-06-04T06:13:36;16.60;60.80
17998;DHT22;9124;48.144;17.098;2023-06-04T06:18:04;16.60;61.00
17998;DHT22;9124;48.144;17.098;2023-06-04T06:22:40;16.70;60.90
17998;DHT22;9124;48.144;17.098;2023-06-04T06:27:33;16.70;61.60
17998;DHT22;9124;48.144;17.098;2023-06-04T06:32:00;16.70;60.90
17998;DHT22;9124;48.144;17.098;2023-06-04T06:36:27;16.70;61.00
17998;DHT22;9124;48.144;17.098;2023-06-04T06:40:54;16.60;61.00
17998;DHT22;9124;48.144;17.098;2023-06-04T06:45:21;16.50;60.90
17998;DHT22;9124;48.144;17.098;2023-06-04T06:49:49;16.50;61.10
17998;DHT22;9124;48.144;17.098;2023-06-04T06:54:15;16.60;61.20
17998;DHT22;9124;48.144;17.098;2023-06-04T06:58:43;16.50;61.20
17998;DHT22;9124;48.144;17.098;2023-06-04T07:03:09;16.50;61.30
17998;DHT22;9124;48.144;17.098;2023-06-04T07:07:37;16.60;61.50
17998;DHT22;9124;48.144;17.098;2023-06-04T07:12:03;16.50;61.30
17998;DHT22;9124;48.144;17.098;2023-06-04T07:16:30;16.50;61.40
17998;DHT22;9124;48.144;17.098;2023-06-04T07:20:56;16.50;61.60
17998;DHT22;9124;48.144;17.098;2023-06-04T07:25:23;16.40;61.60
17998;DHT22;9124;48.144;17.098;2023-06-04T07:29:49;16.50;61.90
17998;DHT22;9124;48.144;17.098;2023-06-04T07:34:16;16.60;62.00
17998;DHT22;9124;48.144;17.098;2023-06-04T07:38:43;16.70;61.90
17998;DHT22;9124;48.144;17.098;2023-06-04T07:43:09;16.90;61.90
17998;DHT22;9124;48.144;17.098;2023-06-04T07:47:36;16.90;61.80
17998;DHT22;9124;48.144;17.098;2023-06-04T07:52:02;17.00;61.80
17998;DHT22;9124;48.144;17.098;2023-06-04T07:56:29;17.20;62.00
17998;DHT22;9124;48.144;17.098;2023-06-04T08:00:55;17.40;61.90
17998;DHT22;9124;48.144;17.098;2023-06-04T08:05:22;17.50;61.80
17998;DHT22;9124;48.144;17.098;2023-06-04T08:09:49;17.60;61.50
17998;DHT22;9124;48.144;17.098;2023-06-04T08:14:15;17.70;61.50
17998;DHT22;9124;48.144;17.098;2023-06-04T08:18:42;17.70;61.10
17998;DHT22;9124;48.144;17.098;2023-06-04T08:23:09;17.70;61.10
17998;DHT22;9124;48.144;17.098;2023-06-04T08:27:36;17.90;61.00
17998;DHT22;9124;48.144;17.098;2023-06-04T08:32:03;17.80;60.90
17998;DHT22;9124;48.144;17.098;2023-06-04T08:36:30;17.70;61.00
17998;DHT22;9124;48.144;17.098;2023-06-04T08:45:48;17.30;61.50
17998;DHT22;9124;48.144;17.098;2023-06-04T08:50:18;17.20;62.00
17998;DHT22;9124;48.144;17.098;2023-06-04T08:54:48;17.20;62.50
17998;DHT22;9124;48.144;17.098;2023-06-04T08:59:15;17.20;62.80
17998;DHT22;9124;48.144;17.098;2023-06-04T09:03:42;17.20;63.10
17998;DHT22;9124;48.144;17.098;2023-06-04T09:08:08;17.40;63.30
17998;DHT22;9124;48.144;17.098;2023-06-04T09:12:42;17.50;63.20
17998;DHT22;9124;48.144;17.098;2023-06-04T09:17:09;17.50;63.20
17998;DHT22;9124;48.144;17.098;2023-06-04T09:21:49;17.50;63.20
17998;DHT22;9124;48.144;17.098;2023-06-04T09:26:16;17.30;63.50
17998;DHT22;9124;48.144;17.098;2023-06-04T09:30:52;17.10;63.80
17998;DHT22;9124;48.144;17.098;2023-06-04T09:35:21;17.10;64.10
17998;DHT22;9124;48.144;17.098;2023-06-04T09:39:55;17.00;64.30
17998;DHT22;9124;48.144;17.098;2023-06-04T09:44:21;17.10;65.00
17998;DHT22;9124;48.144;17.098;2023-06-04T09:48:47;17.20;65.10
17998;DHT22;9124;48.144;17.098;2023-06-04T09:53:20;17.30;66.00
17998;DHT22;9124;48.144;17.098;2023-06-04T09:57:53;17.40;65.50
17998;DHT22;9124;48.144;17.098;2023-06-04T10:02:20;17.40;65.70
17998;DHT22;9124;48.144;17.098;2023-06-04T10:06:47;17.50;65.70
17998;DHT22;9124;48.144;17.098;2023-06-04T10:11:13;17.50;65.60
17998;DHT22;9124;48.144;17.098;2023-06-04T10:15:41;17.40;65.70
17998;DHT22;9124;48.144;17.098;2023-06-04T10:20:08;17.20;66.20
17998;DHT22;9124;48.144;17.098;2023-06-04T10:25:00;17.10;66.80
17998;DHT22;9124;48.144;17.098;2023-06-04T10:29:27;17.00;67.30
17998;DHT22;9124;48.144;17.098;2023-06-04T10:33:56;17.20;67.60
17998;DHT22;9124;48.144;17.098;2023-06-04T10:38:23;17.60;67.50
17998;DHT22;9124;48.144;17.098;2023-06-04T10:42:50;17.80;67.10
17998;DHT22;9124;48.144;17.098;2023-06-04T10:47:43;18.60;66.60
17998;DHT22;9124;48.144;17.098;2023-06-04T10:52:11;19.40;65.60
17998;DHT22;9124;48.144;17.098;2023-06-04T10:56:37;20.00;63.80
17998;DHT22;9124;48.144;17.098;2023-06-04T11:01:04;20.20;62.80
17998;DHT22;9124;48.144;17.098;2023-06-04T11:05:40;20.00;62.30
17998;DHT22;9124;48.144;17.098;2023-06-04T11:10:07;20.00;62.60
17998;DHT22;9124;48.144;17.098;2023-06-04T11:14:33;19.80;62.20
17998;DHT22;9124;48.144;17.098;2023-06-04T11:18:59;19.60;62.70
17998;DHT22;9124;48.144;17.098;2023-06-04T11:23:28;19.50;62.80
17998;DHT22;9124;48.144;17.098;2023-06-04T11:27:55;19.60;62.90
17998;DHT22;9124;48.144;17.098;2023-06-04T11:32:23;19.80;62.80
17998;DHT22;9124;48.144;17.098;2023-06-04T11:36:50;20.00;62.70
17998;DHT22;9124;48.144;17.098;2023-06-04T11:41:18;20.10;62.20
17998;DHT22;9124;48.144;17.098;2023-06-04T11:45:45;20.20;62.00
17998;DHT22;9124;48.144;17.098;2023-06-04T11:50:11;20.50;61.60
17998;DHT22;9124;48.144;17.098;2023-06-04T11:54:38;20.80;61.00
17998;DHT22;9124;48.144;17.098;2023-06-04T11:59:06;20.90;60.50
17998;DHT22;9124;48.144;17.098;2023-06-04T12:03:37;21.00;60.20
17998;DHT22;9124;48.144;17.098;2023-06-04T12:08:08;20.90;60.00
17998;DHT22;9124;48.144;17.098;2023-06-04T12:12:35;21.00;60.10
17998;DHT22;9124;48.144;17.098;2023-06-04T12:17:06;21.00;59.90
17998;DHT22;9124;48.144;17.098;2023-06-04T12:21:33;20.60;60.00
17998;DHT22;9124;48.144;17.098;2023-06-04T12:25:59;20.60;60.70
17998;DHT22;9124;48.144;17.098;2023-06-04T12:30:36;20.70;60.80
17998;DHT22;9124;48.144;17.098;2023-06-04T12:35:03;21.10;60.50
17998;DHT22;9124;48.144;17.098;2023-06-04T12:39:30;21.30;60.30
17998;DHT22;9124;48.144;17.098;2023-06-04T12:44:21;21.30;60.10
17998;DHT22;9124;48.144;17.098;2023-06-04T12:48:51;21.40;60.10
17998;DHT22;9124;48.144;17.098;2023-06-04T12:53:17;21.30;59.70
17998;DHT22;9124;48.144;17.098;2023-06-04T12:57:44;20.90;60.00
17998;DHT22;9124;48.144;17.098;2023-06-04T13:02:11;20.90;60.30
17998;DHT22;9124;48.144;17.098;2023-06-04T13:06:38;21.00;60.60
17998;DHT22;9124;48.144;17.098;2023-06-04T13:11:04;21.30;60.20
17998;DHT22;9124;48.144;17.098;2023-06-04T13:15:32;21.20;60.30
17998;DHT22;9124;48.144;17.098;2023-06-04T13:19:58;21.20;60.20
17998;DHT22;9124;48.144;17.098;2023-06-04T13:24:25;21.30;60.20
17998;DHT22;9124;48.144;17.098;2023-06-04T13:28:51;21.60;60.30
17998;DHT22;9124;48.144;17.098;2023-06-04T13:33:18;21.90;60.10
17998;DHT22;9124;48.144;17.098;2023-06-04T13:37:45;22.10;60.00
17998;DHT22;9124;48.144;17.098;2023-06-04T13:42:11;21.90;59.50
17998;DHT22;9124;48.144;17.098;2023-06-04T13:46:38;21.50;60.10
17998;DHT22;9124;48.144;17.098;2023-06-04T13:51:29;21.60;61.10
17998;DHT22;9124;48.144;17.098;2023-06-04T13:56:06;21.80;61.10
17998;DHT22;9124;48.144;17.098;2023-06-04T14:00:33;21.80;61.20
17998;DHT22;9124;48.144;17.098;2023-06-04T14:05:00;21.70;61.60
17998;DHT22;9124;48.144;17.098;2023-06-04T14:09:27;21.80;61.50
17998;DHT22;9124;48.144;17.098;2023-06-04T14:13:53;21.80;61.50
17998;DHT22;9124;48.144;17.098;2023-06-04T14:18:19;21.80;61.50
17998;DHT22;9124;48.144;17.098;2023-06-04T14:22:45;21.70;61.50
17998;DHT22;9124;48.144;17.098;2023-06-04T14:27:12;21.60;61.90
17998;DHT22;9124;48.144;17.098;2023-06-04T14:32:08;21.60;62.00
17998;DHT22;9124;48.144;17.098;2023-06-04T14:36:35;21.70;62.40
17998;DHT22;9124;48.144;17.098;2023-06-04T14:41:01;21.70;62.70
17998;DHT22;9124;48.144;17.098;2023-06-04T14:45:27;21.60;63.00
17998;DHT22;9124;48.144;17.098;2023-06-04T14:49:54;21.30;63.20
17998;DHT22;9124;48.144;17.098;2023-06-04T14:54:20;21.00;64.10
17998;DHT22;9124;48.144;17.098;2023-06-04T14:58:46;20.70;64.90
17998;DHT22;9124;48.144;17.098;2023-06-04T15:03:13;20.40;65.60
17998;DHT22;9124;48.144;17.098;2023-06-04T15:07:39;20.10;66.40
17998;DHT22;9124;48.144;17.098;2023-06-04T15:12:06;20.00;67.50
17998;DHT22;9124;48.144;17.098;2023-06-04T15:16:32;20.00;68.30
17998;DHT22;9124;48.144;17.098;2023-06-04T15:20:58;19.80;69.00
17998;DHT22;9124;48.144;17.098;2023-06-04T15:25:24;19.70;70.10
17998;DHT22;9124;48.144;17.098;2023-06-04T15:29:51;19.50;70.90
17998;DHT22;9124;48.144;17.098;2023-06-04T15:34:18;19.40;72.20
17998;DHT22;9124;48.144;17.098;2023-06-04T15:38:47;19.40;73.00
17998;DHT22;9124;48.144;17.098;2023-06-04T15:43:14;19.50;73.60
17998;DHT22;9124;48.144;17.098;2023-06-04T15:47:42;19.50;74.10
17998;DHT22;9124;48.144;17.098;2023-06-04T15:52:09;19.50;74.60
17998;DHT22;9124;48.144;17.098;2023-06-04T15:56:35;19.40;75.10
17998;DHT22;9124;48.144;17.098;2023-06-04T16:01:02;19.20;75.70
17998;DHT22;9124;48.144;17.098;2023-06-04T16:11:43;19.20;76.90
17998;DHT22;9124;48.144;17.098;2023-06-04T16:16:10;19.30;77.20
17998;DHT22;9124;48.144;17.098;2023-06-04T16:20:45;19.10;77.50
17998;DHT22;9124;48.144;17.098;2023-06-04T16:25:12;19.00;78.10
17998;DHT22;9124;48.144;17.098;2023-06-04T16:29:43;18.80;78.70
17998;DHT22;9124;48.144;17.098;2023-06-04T16:34:10;18.70;78.90
17998;DHT22;9124;48.144;17.098;2023-06-04T16:38:36;18.60;79.40
17998;DHT22;9124;48.144;17.098;2023-06-04T16:43:02;18.50;79.80
17998;DHT22;9124;48.144;17.098;2023-06-04T16:47:29;18.50;80.40
17998;DHT22;9124;48.144;17.098;2023-06-04T16:51:55;18.60;80.50
17998;DHT22;9124;48.144;17.098;2023-06-04T16:56:21;18.60;80.30
17998;DHT22;9124;48.144;17.098;2023-06-04T17:00:48;18.60;80.40
17998;DHT22;9124;48.144;17.098;2023-06-04T17:05:15;18.40;80.60
17998;DHT22;9124;48.144;17.098;2023-06-04T17:09:44;18.40;80.90
17998;DHT22;9124;48.144;17.098;2023-06-04T17:14:11;18.30;81.20
17998;DHT22;9124;48.144;17.098;2023-06-04T17:18:38;18.20;81.60
17998;DHT22;9124;48.144;17.098;2023-06-04T17:23:21;18.10;82.10
17998;DHT22;9124;48.144;17.098;2023-06-04T17:27:48;18.10;82.80
17998;DHT22;9124;48.144;17.098;2023-06-04T17:32:16;18.00;83.00
17998;DHT22;9124;48.144;17.098;2023-06-04T17:36:43;18.00;83.30
17998;DHT22;9124;48.144;17.098;2023-06-04T17:41:09;17.90;84.00
17998;DHT22;9124;48.144;17.098;2023-06-04T17:45:36;17.80;84.40
17998;DHT22;9124;48.144;17.098;2023-06-04T17:50:02;17.80;84.80
17998;DHT22;9124;48.144;17.098;2023-06-04T17:54:32;17.80;85.10
17998;DHT22;9124;48.144;17.098;2023-06-04T17:58:59;17.80;85.40
17998;DHT22;9124;48.144;17.098;2023-06-04T18:03:25;17.70;85.50
17998;DHT22;9124;48.144;17.098;2023-06-04T18:07:52;17.60;85.70
17998;DHT22;9124;48.144;17.098;2023-06-04T18:12:18;17.60;85.80
17998;DHT22;9124;48.144;17.098;2023-06-04T18:16:45;17.60;86.00
17998;DHT22;9124;48.144;17.098;2023-06-04T18:21:11;17.50;86.10
17998;DHT22;9124;48.144;17.098;2023-06-04T18:25:38;17.50;86.30
17998;DHT22;9124;48.144;17.098;2023-06-04T18:30:04;17.50;86.60
17998;DHT22;9124;48.144;17.098;2023-06-04T18:34:32;17.50;86.70
17998;DHT22;9124;48.144;17.098;2023-06-04T18:45:13;17.60;86.70
17998;DHT22;9124;48.144;17.098;2023-06-04T18:49:39;17.50;86.80
17998;DHT22;9124;48.144;17.098;2023-06-04T18:54:06;17.40;87.10
17998;DHT22;9124;48.144;17.098;2023-06-04T18:58:33;17.40;87.30
17998;DHT22;9124;48.144;17.098;2023-06-04T19:02:59;17.40;87.50
17998;DHT22;9124;48.144;17.098;2023-06-04T19:07:25;17.40;87.70
17998;DHT22;9124;48.144;17.098;2023-06-04T19:11:51;17.40;88.10
17998;DHT22;9124;48.144;17.098;2023-06-04T19:16:18;17.30;88.50
17998;DHT22;9124;48.144;17.098;2023-06-04T19:20:44;17.20;89.40
17998;DHT22;9124;48.144;17.098;2023-06-04T19:25:11;17.10;90.10
17998;DHT22;9124;48.144;17.098;2023-06-04T19:29:37;17.10;90.30
17998;DHT22;9124;48.144;17.098;2023-06-04T19:34:08;17.00;90.50
17998;DHT22;9124;48.144;17.098;2023-06-04T19:38:35;17.00;90.70
17998;DHT22;9124;48.144;17.098;2023-06-04T19:43:03;17.00;90.90
17998;DHT22;9124;48.144;17.098;2023-06-04T19:47:30;17.00;91.10
17998;DHT22;9124;48.144;17.098;2023-06-04T19:51:56;17.00;91.30
17998;DHT22;9124;48.144;17.098;2023-06-04T19:56:22;17.00;91.50
17998;DHT22;9124;48.144;17.098;2023-06-04T20:00:49;17.10;91.60
17998;DHT22;9124;48.144;17.098;2023-06-04T20:05:16;17.10;91.80
17998;DHT22;9124;48.144;17.098;2023-06-04T20:09:42;17.00;92.00
17998;DHT22;9124;48.144;17.098;2023-06-04T20:14:08;17.00;92.20
17998;DHT22;9124;48.144;17.098;2023-06-04T20:18:36;17.00;92.40
17998;DHT22;9124;48.144;17.098;2023-06-04T20:23:02;17.00;92.60
17998;DHT22;9124;48.144;17.098;2023-06-04T20:27:29;17.00;92.80
17998;DHT22;9124;48.144;17.098;2023-06-04T20:31:55;16.90;93.00
17998;DHT22;9124;48.144;17.098;2023-06-04T20:36:23;16.90;93.40
17998;DHT22;9124;48.144;17.098;2023-06-04T20:40:49;16.80;93.70
17998;DHT22;9124;48.144;17.098;2023-06-04T20:45:16;16.80;93.90
17998;DHT22;9124;48.144;17.098;2023-06-04T20:49:42;16.80;94.20
17998;DHT22;9124;48.144;17.098;2023-06-04T20:54:09;16.70;94.50
17998;DHT22;9124;48.144;17.098;2023-06-04T20:58:35;16.70;94.80
17998;DHT22;9124;48.144;17.098;2023-06-04T21:03:01;16.60;95.00
17998;DHT22;9124;48.144;17.098;2023-06-04T21:07:28;16.60;95.30
17998;DHT22;9124;48.144;17.098;2023-06-04T21:11:54;16.60;95.50
17998;DHT22;9124;48.144;17.098;2023-06-04T21:16:21;16.60;95.80
17998;DHT22;9124;48.144;17.098;2023-06-04T21:20:47;16.50;96.10
17998;DHT22;9124;48.144;17.098;2023-06-04T21:25:14;16.40;96.40
17998;DHT22;9124;48.144;17.098;2023-06-04T21:29:40;16.40;96.70
17998;DHT22;9124;48.144;17.098;2023-06-04T21:34:06;16.40;97.00
17998;DHT22;9124;48.144;17.098;2023-06-04T21:38:33;16.40;97.30
17998;DHT22;9124;48.144;17.098;2023-06-04T21:42:59;16.30;97.40
17998;DHT22;9124;48.144;17.098;2023-06-04T21:47:26;16.20;97.70
17998;DHT22;9124;48.144;17.098;2023-06-04T21:51:52;16.20;98.00
17998;DHT22;9124;48.144;17.098;2023-06-04T21:56:18;16.20;98.30
17998;DHT22;9124;48.144;17.098;2023-06-04T22:00:46;16.20;98.90
17998;DHT22;9124;48.144;17.098;2023-06-04T22:05:12;16.20;98.90
17998;DHT22;9124;48.144;17.098;2023-06-04T22:09:39;16.20;99.10
17998;DHT22;9124;48.144;17.098;2023-06-04T22:14:05;16.30;99.40
17998;DHT22;9124;48.144;17.098;2023-06-04T22:18:31;16.30;99.60
17998;DHT22;9124;48.144;17.098;2023-06-04T22:22:57;16.30;99.70
17998;DHT22;9124;48.144;17.098;2023-06-04T22:27:24;16.40;99.90
17998;DHT22;9124;48.144;17.098;2023-06-04T22:31:50;16.30;99.90
17998;DHT22;9124;48.144;17.098;2023-06-04T22:36:16;16.40;99.90
17998;DHT22;9124;48.144;17.098;2023-06-04T22:40:42;16.40;99.90
17998;DHT22;9124;48.144;17.098;2023-06-04T22:45:09;16.30;99.90
17998;DHT22;9124;48.144;17.098;2023-06-04T22:49:36;16.30;99.90
17998;DHT22;9124;48.144;17.098;2023-06-04T22:54:02;16.30;99.90
17998;DHT22;9124;48.144;17.098;2023-06-04T22:58:29;16.20;99.90
17998;DHT22;9124;48.144;17.098;2023-06-04T23:02:56;16.20;99.90
17998;DHT22;9124;48.144;17.098;2023-06-04T23:07:22;16.10;99.90
17998;DHT22;9124;48.144;17.098;2023-06-04T23:11:49;16.10;99.90
17998;DHT22;9124;48.144;17.098;2023-06-04T23:16:16;16.20;99.90
17998;DHT22;9124;48.144;17.098;2023-06-04T23:20:42;16.20;99.90
17998;DHT22;9124;48.144;17.098;2023-06-04T23:25:08;16.20;99.90
17998;DHT22;9124;48.144;17.098;2023-06-04T23:29:34;16.20;99.90
17998;DHT22;9124;48.144;17.098;2023-06-04T23:34:01;16.20;99.90
17998;DHT22;9124;48.144;17.098;2023-06-04T23:38:27;16.10;99.90
17998;DHT22;9124;48.144;17.098;2023-06-04T23:42:54;16.10;99.90
17998;DHT22;9124;48.144;17.098;2023-06-04T23:47:20;16.00;99.90
17998;DHT22;9124;48.144;17.098;2023-06-04T23:51:47;15.90;99.90
17998;DHT22;9124;48.144;17.098;2023-06-04T23:56:13;15.90;99.90
